Time;durP1;ratioP1;P1;durP2;ratioP2;P2;SDS_P1;SDS_P2;PMS_P1;PMS_P2;Temp;Humidity;BMP_temperature;BMP_pressure;BME280_temperature;BME280_humidity;BME280_pressure;Samples;Min_cycle;Max_cycle;Signal;HPM_P1;HPM_P2
2023/08/19 00:01:30;;;;;;;;;;;21.60;99.90;;;;;;20999131;28;19920;-72
2023/08/19 00:11:31;;;;;;;;;;;21.60;99.90;;;;;;20993563;28;20011;-72
2023/08/19 00:21:32;;;;;;;;;;;21.50;99.90;;;;;;20993841;28;19917;-72
2023/08/19 00:31:33;;;;;;;;;;;21.30;99.90;;;;;;20992162;28;20290;-72
2023/08/19 00:41:34;;;;;;;;;;;21.10;99.90;;;;;;20994389;28;19916;-72
2023/08/19 00:51:35;;;;;;;;;;;20.50;99.90;;;;;;20987725;28;19919;-72
2023/08/19 01:01:35;;;;;;;;;;;20.60;99.90;;;;;;20989498;28;20396;-72
2023/08/19 01:11:36;;;;;;;;;;;20.60;99.90;;;;;;20981049;28;20001;-72
2023/08/19 01:21:37;;;;;;;;;;;20.40;99.90;;;;;;20986963;28;20467;-72
2023/08/19 01:31:37;;;;;;;;;;;20.20;99.90;;;;;;20979128;28;20404;-72
2023/08/19 01:41:40;;;;;;;;;;;20.10;99.90;;;;;;20988072;28;20484;-72
2023/08/19 01:51:41;;;;;;;;;;;20.10;99.90;;;;;;20984189;28;19938;-72
2023/08/19 02:01:42;;;;;;;;;;;20.20;99.90;;;;;;20974215;28;20047;-71
2023/08/19 02:11:42;;;;;;;;;;;19.90;99.90;;;;;;20973805;28;19913;-72
2023/08/19 02:21:43;;;;;;;;;;;20.00;99.90;;;;;;20973941;28;20400;-71
2023/08/19 02:31:44;;;;;;;;;;;20.10;99.90;;;;;;21011369;22;19925;-78
2023/08/19 02:41:44;;;;;;;;;;;19.70;99.90;;;;;;20982030;28;19941;-78
2023/08/19 02:51:45;;;;;;;;;;;19.70;99.90;;;;;;20945698;28;19912;-79
2023/08/19 03:01:48;;;;;;;;;;;19.40;99.90;;;;;;20930762;28;20371;-78
2023/08/19 03:11:48;;;;;;;;;;;19.40;99.90;;;;;;20940509;28;19919;-78
2023/08/19 03:21:49;;;;;;;;;;;19.30;99.90;;;;;;20924047;28;19955;-79
2023/08/19 03:31:50;;;;;;;;;;;19.20;99.90;;;;;;20922628;28;19924;-79
2023/08/19 03:41:51;;;;;;;;;;;18.90;99.90;;;;;;20934194;28;19917;-79
2023/08/19 03:51:52;;;;;;;;;;;18.80;99.90;;;;;;20934358;28;20413;-78
2023/08/19 04:01:52;;;;;;;;;;;18.50;99.90;;;;;;20918543;28;20106;-78
2023/08/19 04:11:55;;;;;;;;;;;18.40;99.90;;;;;;20923211;28;19970;-78
2023/08/19 04:21:55;;;;;;;;;;;18.50;99.90;;;;;;20911417;28;20023;-78
2023/08/19 04:32:02;;;;;;;;;;;18.70;99.90;;;;;;20912443;28;19917;-78
2023/08/19 04:42:04;;;;;;;;;;;18.60;99.90;;;;;;20890509;28;19929;-78
2023/08/19 04:52:05;;;;;;;;;;;18.60;99.90;;;;;;20859087;28;19999;-77
2023/08/19 05:02:06;;;;;;;;;;;18.60;99.90;;;;;;20869605;28;19936;-77
2023/08/19 05:12:06;;;;;;;;;;;18.80;99.90;;;;;;20885414;28;20000;-78
2023/08/19 05:22:07;;;;;;;;;;;18.70;99.90;;;;;;20900948;28;19952;-77
2023/08/19 05:32:08;;;;;;;;;;;18.60;99.90;;;;;;20882429;28;19953;-78
2023/08/19 05:42:09;;;;;;;;;;;18.90;99.90;;;;;;20826401;28;19917;-77
2023/08/19 05:52:09;;;;;;;;;;;19.20;99.90;;;;;;20864825;28;19913;-78
2023/08/19 06:02:10;;;;;;;;;;;19.50;99.90;;;;;;20851750;28;19987;-77
2023/08/19 06:12:11;;;;;;;;;;;19.70;99.90;;;;;;20825033;28;19913;-78
2023/08/19 06:22:12;;;;;;;;;;;20.10;99.90;;;;;;20824756;28;19924;-77
2023/08/19 06:32:13;;;;;;;;;;;20.40;99.90;;;;;;20822789;28;19917;-78
2023/08/19 06:42:13;;;;;;;;;;;20.80;99.90;;;;;;20824304;28;19928;-76
2023/08/19 06:52:17;;;;;;;;;;;21.00;99.90;;;;;;20836185;28;20453;-78
2023/08/19 07:02:18;;;;;;;;;;;21.50;99.90;;;;;;20897491;28;20043;-77
2023/08/19 07:12:19;;;;;;;;;;;21.60;99.90;;;;;;20888026;28;19960;-78
2023/08/19 07:22:20;;;;;;;;;;;22.30;99.90;;;;;;20919569;28;19992;-78
2023/08/19 07:32:21;;;;;;;;;;;22.80;99.90;;;;;;20907571;28;19917;-77
2023/08/19 07:42:22;;;;;;;;;;;23.90;99.90;;;;;;20906419;28;19923;-77
2023/08/19 07:52:22;;;;;;;;;;;24.50;99.90;;;;;;20917193;28;19912;-77
2023/08/19 08:02:23;;;;;;;;;;;24.90;99.90;;;;;;20916265;28;19921;-77
2023/08/19 08:12:24;;;;;;;;;;;25.70;99.90;;;;;;20897887;28;19924;-77
2023/08/19 08:22:25;;;;;;;;;;;26.70;99.90;;;;;;20912892;28;19916;-77
2023/08/19 08:32:26;;;;;;;;;;;27.50;99.90;;;;;;20916505;22;19925;-72
2023/08/19 08:42:27;;;;;;;;;;;28.00;99.90;;;;;;20805410;28;19922;-71
2023/08/19 08:52:28;;;;;;;;;;;28.80;99.90;;;;;;20763229;28;19940;-71
2023/08/19 09:02:29;;;;;;;;;;;29.70;99.90;;;;;;20829531;28;19917;-71
2023/08/19 09:12:31;;;;;;;;;;;29.60;99.90;;;;;;20829194;28;19924;-71
2023/08/19 09:22:32;;;;;;;;;;;30.30;99.90;;;;;;20828049;28;20398;-71
2023/08/19 09:32:36;;;;;;;;;;;29.60;99.90;;;;;;20827031;28;19955;-71
2023/08/19 09:42:37;;;;;;;;;;;30.00;99.90;;;;;;20826716;28;20055;-71
2023/08/19 09:52:40;;;;;;;;;;;30.00;99.90;;;;;;20843173;28;20383;-71
2023/08/19 10:02:40;;;;;;;;;;;32.30;99.90;;;;;;20825860;28;20366;-71
2023/08/19 10:12:42;;;;;;;;;;;33.30;99.90;;;;;;20825534;28;19913;-71
2023/08/19 10:22:45;;;;;;;;;;;34.50;99.80;;;;;;20829850;28;19983;-72
2023/08/19 10:32:46;;;;;;;;;;;34.40;99.00;;;;;;20824475;28;20312;-71
2023/08/19 10:42:55;;;;;;;;;;;33.80;99.00;;;;;;20824082;28;20011;-71
2023/08/19 10:52:59;;;;;;;;;;;32.90;99.20;;;;;;20839830;28;20003;-71
2023/08/19 11:03:00;;;;;;;;;;;33.40;95.40;;;;;;20829575;28;19923;-71
2023/08/19 11:13:00;;;;;;;;;;;33.60;95.40;;;;;;20842076;28;20391;-71
2023/08/19 11:23:01;;;;;;;;;;;34.50;94.50;;;;;;20837715;28;19917;-71
2023/08/19 11:33:02;;;;;;;;;;;33.50;92.60;;;;;;20836947;28;19960;-72
2023/08/19 11:43:07;;;;;;;;;;;34.10;91.60;;;;;;20836875;28;19924;-72
2023/08/19 11:53:07;;;;;;;;;;;33.70;92.20;;;;;;20835459;28;20319;-71
2023/08/19 12:03:08;;;;;;;;;;;33.70;91.30;;;;;;20844435;28;19925;-71
2023/08/19 12:13:09;;;;;;;;;;;34.70;89.60;;;;;;20834400;28;19913;-71
2023/08/19 12:23:12;;;;;;;;;;;35.30;88.00;;;;;;20833144;28;20287;-71
2023/08/19 12:33:19;;;;;;;;;;;34.90;86.00;;;;;;20817003;28;19917;-71
2023/08/19 12:43:20;;;;;;;;;;;35.30;86.00;;;;;;20823564;28;20388;-71
2023/08/19 12:53:21;;;;;;;;;;;34.60;88.70;;;;;;20830858;28;20328;-71
2023/08/19 13:03:21;;;;;;;;;;;34.60;86.30;;;;;;20811788;28;19971;-72
2023/08/19 13:13:22;;;;;;;;;;;35.10;83.70;;;;;;20820353;28;19913;-71
2023/08/19 13:23:22;;;;;;;;;;;35.40;82.50;;;;;;20817837;28;20407;-71
2023/08/19 13:33:23;;;;;;;;;;;35.00;82.30;;;;;;20807231;28;19929;-71
2023/08/19 13:43:24;;;;;;;;;;;35.30;79.90;;;;;;20801788;28;19927;-72
2023/08/19 13:53:24;;;;;;;;;;;35.90;82.40;;;;;;20810710;28;19926;-72
2023/08/19 14:03:26;;;;;;;;;;;36.50;79.90;;;;;;20792927;28;19921;-72
2023/08/19 14:13:28;;;;;;;;;;;36.60;78.70;;;;;;20793598;28;19920;-72
2023/08/19 14:23:29;;;;;;;;;;;36.10;76.40;;;;;;20799795;28;19917;-72
2023/08/19 14:33:30;;;;;;;;;;;35.50;77.20;;;;;;20865772;22;19925;-77
2023/08/19 14:43:30;;;;;;;;;;;34.80;76.60;;;;;;20914043;28;20298;-79
2023/08/19 14:53:31;;;;;;;;;;;34.50;77.60;;;;;;20835311;28;19967;-79
2023/08/19 15:03:32;;;;;;;;;;;34.40;82.10;;;;;;20820491;28;19917;-79
2023/08/19 15:13:32;;;;;;;;;;;33.70;79.90;;;;;;20827649;28;20388;-79
2023/08/19 15:23:33;;;;;;;;;;;34.30;80.60;;;;;;20835938;28;19932;-79
2023/08/19 15:33:34;;;;;;;;;;;33.80;79.40;;;;;;20830867;28;19948;-79
2023/08/19 15:43:34;;;;;;;;;;;33.50;82.20;;;;;;20819720;28;20437;-79
2023/08/19 15:53:35;;;;;;;;;;;33.50;86.60;;;;;;20830687;28;19913;-79
2023/08/19 16:03:35;;;;;;;;;;;33.40;85.40;;;;;;20830874;28;20039;-79
2023/08/19 16:13:36;;;;;;;;;;;33.30;84.90;;;;;;20847757;28;20371;-79
2023/08/19 16:23:37;;;;;;;;;;;33.00;87.30;;;;;;20816251;28;19988;-79
2023/08/19 16:33:37;;;;;;;;;;;32.00;90.80;;;;;;20818603;28;19925;-79
2023/08/19 16:43:38;;;;;;;;;;;31.20;96.80;;;;;;20821498;28;19925;-79
2023/08/19 16:53:39;;;;;;;;;;;30.80;99.90;;;;;;20793326;28;19914;-77
2023/08/19 17:03:40;;;;;;;;;;;30.40;99.90;;;;;;20802324;28;19939;-79
2023/08/19 17:13:40;;;;;;;;;;;29.80;99.90;;;;;;20797682;28;20007;-76
2023/08/19 17:23:41;;;;;;;;;;;30.10;99.90;;;;;;20798899;28;19925;-79
2023/08/19 17:33:42;;;;;;;;;;;29.20;99.90;;;;;;20806250;28;19917;-79
2023/08/19 17:43:42;;;;;;;;;;;29.30;99.90;;;;;;20796322;28;20004;-77
2023/08/19 17:53:43;;;;;;;;;;;29.20;99.90;;;;;;20789454;28;20039;-76
2023/08/19 18:03:43;;;;;;;;;;;28.80;99.90;;;;;;20811667;28;20517;-79
2023/08/19 18:13:44;;;;;;;;;;;28.30;99.90;;;;;;20814035;28;19913;-79
2023/08/19 18:23:45;;;;;;;;;;;28.00;99.90;;;;;;20828147;28;19952;-79
2023/08/19 18:33:45;;;;;;;;;;;27.20;99.90;;;;;;20827573;28;19917;-79
2023/08/19 18:43:46;;;;;;;;;;;26.90;99.90;;;;;;20839996;28;20064;-79
2023/08/19 18:53:47;;;;;;;;;;;26.80;99.90;;;;;;20843018;28;19960;-79
2023/08/19 19:03:47;;;;;;;;;;;26.90;99.90;;;;;;20847012;28;20317;-79
2023/08/19 19:13:48;;;;;;;;;;;26.70;99.90;;;;;;20853734;28;19913;-79
2023/08/19 19:23:49;;;;;;;;;;;26.30;99.90;;;;;;20830050;28;19957;-79
2023/08/19 19:33:50;;;;;;;;;;;26.00;99.90;;;;;;20813615;28;19932;-79
2023/08/19 19:43:51;;;;;;;;;;;25.40;99.90;;;;;;20804484;28;19918;-78
2023/08/19 19:53:51;;;;;;;;;;;24.90;99.90;;;;;;20806038;28;20040;-79
2023/08/19 20:03:52;;;;;;;;;;;25.00;99.90;;;;;;20804813;28;19917;-79
2023/08/19 20:13:53;;;;;;;;;;;25.10;99.90;;;;;;20807332;28;19913;-79
2023/08/19 20:23:54;;;;;;;;;;;24.70;99.90;;;;;;20806105;28;19928;-78
2023/08/19 20:33:56;;;;;;;;;;;24.30;99.90;;;;;;20894658;22;20027;-72
2023/08/19 20:44:06;;;;;;;;;;;23.90;99.90;;;;;;20969400;28;19921;-74
2023/08/19 20:54:09;;;;;;;;;;;23.50;99.90;;;;;;20964130;28;19920;-74
2023/08/19 21:04:10;;;;;;;;;;;23.70;99.90;;;;;;20963593;28;20302;-74
2023/08/19 21:14:10;;;;;;;;;;;23.60;99.90;;;;;;20954735;28;19919;-74
2023/08/19 21:24:11;;;;;;;;;;;23.20;99.90;;;;;;20972856;28;19917;-74
2023/08/19 21:34:12;;;;;;;;;;;23.10;99.90;;;;;;20938087;28;19925;-74
2023/08/19 21:44:12;;;;;;;;;;;22.80;99.90;;;;;;20962827;28;19969;-74
2023/08/19 21:54:13;;;;;;;;;;;22.40;99.90;;;;;;20991193;28;19963;-74
2023/08/19 22:04:13;;;;;;;;;;;22.60;99.90;;;;;;20953510;28;19923;-74
2023/08/19 22:14:14;;;;;;;;;;;22.40;99.90;;;;;;20950734;28;19916;-74
2023/08/19 22:24:15;;;;;;;;;;;22.00;99.90;;;;;;20929464;28;20010;-74
2023/08/19 22:34:15;;;;;;;;;;;21.50;99.90;;;;;;20950276;28;20946;-74
2023/08/19 22:44:17;;;;;;;;;;;21.80;99.90;;;;;;20973945;28;19967;-74
2023/08/19 22:54:18;;;;;;;;;;;21.70;99.90;;;;;;20986189;28;19916;-72
2023/08/19 23:04:19;;;;;;;;;;;21.40;99.90;;;;;;21004167;28;19916;-72
2023/08/19 23:14:19;;;;;;;;;;;21.20;99.90;;;;;;21003244;28;19912;-72
2023/08/19 23:24:20;;;;;;;;;;;20.90;99.90;;;;;;21002552;28;20309;-72
2023/08/19 23:34:21;;;;;;;;;;;20.60;99.90;;;;;;21001663;28;20004;-72
2023/08/19 23:44:21;;;;;;;;;;;20.40;99.90;;;;;;20977066;28;19971;-72
2023/08/19 23:54:22;;;;;;;;;;;20.30;99.90;;;;;;20986864;28;20389;-72
